createdAt,value
2022-12-13T00:01:15.536Z,20.35
2022-12-13T00:03:43.333Z,20.33
2022-12-13T00:06:11.258Z,20.32
2022-12-13T00:08:38.984Z,20.27
2022-12-13T00:11:07.008Z,20.22
2022-12-13T00:13:35.228Z,20.21
2022-12-13T00:16:02.948Z,20.20
2022-12-13T00:18:30.675Z,20.18
2022-12-13T00:20:59.505Z,20.15
2022-12-13T00:23:27.185Z,20.13
2022-12-13T00:25:54.930Z,20.11
2022-12-13T00:28:22.712Z,20.11
2022-12-13T00:30:50.514Z,20.10
2022-12-13T00:33:18.313Z,20.09
2022-12-13T00:35:46.055Z,20.08
2022-12-13T00:38:13.763Z,20.07
2022-12-13T00:40:41.559Z,20.06
2022-12-13T00:43:09.285Z,20.07
2022-12-13T00:45:38.267Z,20.07
2022-12-13T00:48:06.108Z,20.04
2022-12-13T00:50:33.788Z,20.05
2022-12-13T00:53:01.555Z,20.08
2022-12-13T00:55:29.321Z,20.08
2022-12-13T00:57:57.155Z,20.08
2022-12-13T01:00:25.787Z,20.08
2022-12-13T01:02:53.531Z,20.08
2022-12-13T01:05:46.049Z,20.07
2022-12-13T01:08:08.962Z,20.07
2022-12-13T01:10:36.725Z,20.07
2022-12-13T01:13:04.456Z,20.07
2022-12-13T01:15:32.276Z,20.07
2022-12-13T01:18:00.020Z,20.07
2022-12-13T01:20:27.762Z,20.03
2022-12-13T01:22:55.546Z,20.02
2022-12-13T01:25:23.250Z,20.04
2022-12-13T01:27:50.968Z,20.01
2022-12-13T01:30:18.748Z,20.01
2022-12-13T01:32:46.470Z,20.00
2022-12-13T01:35:14.859Z,19.97
2022-12-13T01:37:43.136Z,19.97
2022-12-13T01:40:15.946Z,19.96
2022-12-13T01:42:44.242Z,19.95
2022-12-13T01:45:12.065Z,19.93
2022-12-13T01:47:39.927Z,19.89
2022-12-13T01:50:07.720Z,19.86
2022-12-13T01:52:36.027Z,19.81
2022-12-13T01:55:04.207Z,19.80
2022-12-13T01:57:32.023Z,19.80
2022-12-13T02:34:49.523Z,19.65
2022-12-13T02:37:18.131Z,19.66
2022-12-13T02:39:46.372Z,19.66
2022-12-13T02:42:21.578Z,19.67
2022-12-13T02:44:49.931Z,19.67
2022-12-13T02:47:22.073Z,19.68
2022-12-13T02:49:50.335Z,19.67
2022-12-13T02:52:22.398Z,19.68
2022-12-13T02:54:50.508Z,19.67
2022-12-13T02:57:21.778Z,19.68
2022-12-13T02:59:52.601Z,19.69
2022-12-13T03:02:21.549Z,19.69
2022-12-13T03:05:16.890Z,19.68
2022-12-13T03:07:44.818Z,19.66
2022-12-13T03:10:12.535Z,19.68
2022-12-13T03:12:58.049Z,19.66
2022-12-13T03:15:26.084Z,19.63
2022-12-13T03:17:53.841Z,19.63
2022-12-13T03:20:22.756Z,19.62
2022-12-13T03:22:51.282Z,19.61
2022-12-13T03:25:31.428Z,19.61
2022-12-13T03:28:01.128Z,19.60
2022-12-13T03:30:29.477Z,19.59
2022-12-13T03:32:57.202Z,19.56
2022-12-13T03:35:25.344Z,19.54
2022-12-13T03:38:02.904Z,19.49
2022-12-13T03:40:30.685Z,19.46
2022-12-13T03:42:58.477Z,19.43
2022-12-13T03:45:26.181Z,19.43
2022-12-13T03:47:54.063Z,19.40
2022-12-13T03:50:26.861Z,19.40
2022-12-13T03:52:55.101Z,19.41
2022-12-13T03:55:23.068Z,19.43
2022-12-13T03:57:50.832Z,19.41
2022-12-13T04:00:18.626Z,19.42
2022-12-13T04:02:46.375Z,19.44
2022-12-13T04:05:14.327Z,19.45
2022-12-13T04:07:48.192Z,19.47
2022-12-13T04:10:26.371Z,19.48
2022-12-13T04:13:12.093Z,19.50
2022-12-13T04:15:39.792Z,19.51
2022-12-13T04:18:07.515Z,19.56
2022-12-13T04:20:35.206Z,19.58
2022-12-13T04:23:10.264Z,19.61
2022-12-13T04:25:38.428Z,19.62
2022-12-13T04:28:06.435Z,19.64
2022-12-13T04:30:34.171Z,19.66
2022-12-13T04:33:01.977Z,19.69
2022-12-13T04:35:29.881Z,19.74
2022-12-13T04:37:58.092Z,19.75
2022-12-13T04:40:26.286Z,19.76
2022-12-13T04:42:54.686Z,19.77
2022-12-13T04:45:22.471Z,19.79
2022-12-13T04:47:50.278Z,19.81
2022-12-13T04:50:18.021Z,19.81
2022-12-13T04:52:45.941Z,19.82
2022-12-13T04:55:13.959Z,19.82
2022-12-13T04:57:41.892Z,19.83
2022-12-13T05:00:09.993Z,19.83
2022-12-13T05:02:37.764Z,19.84
2022-12-13T05:05:05.514Z,19.82
2022-12-13T05:07:33.358Z,19.82
2022-12-13T05:10:01.105Z,19.80
2022-12-13T05:12:28.935Z,19.77
2022-12-13T05:14:56.854Z,19.76
2022-12-13T05:17:24.596Z,19.75
2022-12-13T05:19:52.396Z,19.73
2022-12-13T05:22:21.170Z,19.70
2022-12-13T05:24:49.234Z,19.69
2022-12-13T05:27:24.748Z,19.67
2022-12-13T05:30:03.189Z,19.65
2022-12-13T05:32:42.471Z,19.61
2022-12-13T05:35:12.387Z,19.64
2022-12-13T05:37:40.374Z,19.63
2022-12-13T05:40:08.180Z,19.65
2022-12-13T05:42:35.962Z,19.64
2022-12-13T05:45:03.759Z,19.63
2022-12-13T05:47:31.645Z,19.66
2022-12-13T05:49:59.525Z,19.66
2022-12-13T05:52:30.550Z,19.68
2022-12-13T05:55:01.085Z,19.69
2022-12-13T05:57:29.512Z,19.69
2022-12-13T05:59:57.343Z,19.70
2022-12-13T06:02:25.248Z,19.73
2022-12-13T06:04:53.195Z,19.74
2022-12-13T06:07:21.057Z,19.74
2022-12-13T06:09:48.863Z,19.74
2022-12-13T06:12:31.543Z,19.75
2022-12-13T06:15:00.829Z,19.75
2022-12-13T06:17:29.269Z,19.73
2022-12-13T06:19:57.132Z,19.74
2022-12-13T06:22:25.026Z,19.74
2022-12-13T06:24:52.914Z,19.74
2022-12-13T06:27:21.153Z,19.76
2022-12-13T06:29:48.939Z,19.75
2022-12-13T06:32:16.745Z,19.74
2022-12-13T06:34:44.537Z,19.75
2022-12-13T06:37:12.354Z,19.73
2022-12-13T06:39:40.488Z,19.73
2022-12-13T06:42:08.496Z,19.74
2022-12-13T06:44:36.334Z,19.72
2022-12-13T06:47:11.931Z,19.71
2022-12-13T06:49:40.992Z,19.67
2022-12-13T06:52:09.180Z,19.70
2022-12-13T06:54:36.970Z,19.69
2022-12-13T06:57:04.736Z,19.65
2022-12-13T06:59:32.545Z,19.62
2022-12-13T07:02:03.490Z,19.63
2022-12-13T07:04:31.889Z,19.61
2022-12-13T07:07:01.204Z,19.60
2022-12-13T07:09:29.991Z,19.58
2022-12-13T07:11:57.736Z,19.56
2022-12-13T07:14:25.541Z,19.54
2022-12-13T07:16:59.415Z,19.55
2022-12-13T07:19:42.347Z,19.54
2022-12-13T07:22:11.974Z,19.50
2022-12-13T07:24:39.783Z,19.49
2022-12-13T07:27:07.576Z,19.49
2022-12-13T07:29:35.440Z,19.48
2022-12-13T07:32:03.273Z,19.48
2022-12-13T07:34:31.104Z,19.46
2022-12-13T07:37:01.422Z,19.48
2022-12-13T07:39:29.261Z,19.48
2022-12-13T07:41:57.064Z,19.47
2022-12-13T07:44:24.994Z,19.48
2022-12-13T07:46:52.969Z,19.51
2022-12-13T07:49:20.891Z,19.52
2022-12-13T07:51:49.094Z,19.53
2022-12-13T07:54:16.905Z,19.53
2022-12-13T07:56:44.695Z,19.55
2022-12-13T07:59:13.859Z,19.53
2022-12-13T08:01:41.712Z,19.55
2022-12-13T08:04:09.948Z,19.57
2022-12-13T08:06:37.805Z,19.57
2022-12-13T08:09:05.784Z,19.57
2022-12-13T08:11:33.658Z,19.58
2022-12-13T08:14:01.837Z,19.56
2022-12-13T08:16:30.207Z,19.57
2022-12-13T08:19:02.365Z,19.59
2022-12-13T08:21:53.211Z,19.54
2022-12-13T08:24:19.448Z,19.54
2022-12-13T08:26:47.213Z,19.55
2022-12-13T08:29:22.773Z,19.50
2022-12-13T08:32:01.778Z,19.51
2022-12-13T08:34:29.874Z,19.49
2022-12-13T08:37:01.559Z,19.46
2022-12-13T08:39:34.182Z,19.44
2022-12-13T08:42:16.680Z,19.44
2022-12-13T08:44:46.888Z,19.44
2022-12-13T08:47:23.062Z,19.42
2022-12-13T08:49:51.745Z,19.40
2022-12-13T08:52:19.573Z,19.38
2022-12-13T08:54:47.374Z,19.35
2022-12-13T08:57:15.779Z,19.33
2022-12-13T08:59:43.571Z,19.32
2022-12-13T09:02:11.386Z,19.32
2022-12-13T09:04:39.200Z,19.33
2022-12-13T09:07:06.974Z,19.33
2022-12-13T09:09:34.766Z,19.34
2022-12-13T09:12:10.325Z,19.33
2022-12-13T09:14:45.562Z,19.34
2022-12-13T09:17:14.811Z,19.32
2022-12-13T09:19:57.763Z,19.34
2022-12-13T09:22:33.139Z,19.35
2022-12-13T09:25:02.893Z,19.34
2022-12-13T09:27:31.042Z,19.34
2022-12-13T09:30:08.085Z,19.35
2022-12-13T09:32:35.943Z,19.33
2022-12-13T09:35:03.716Z,19.34
2022-12-13T09:37:32.166Z,19.34
2022-12-13T09:39:59.936Z,19.35
2022-12-13T09:42:45.042Z,19.37
2022-12-13T09:45:22.365Z,19.37
2022-12-13T09:47:50.887Z,19.39
2022-12-13T09:50:18.752Z,19.39
2022-12-13T09:52:52.813Z,19.38
2022-12-13T09:55:29.253Z,19.32
2022-12-13T09:57:58.167Z,19.33
2022-12-13T10:00:27.509Z,19.34
2022-12-13T10:02:55.521Z,19.35
2022-12-13T10:05:26.115Z,19.33
2022-12-13T10:08:03.653Z,19.30
2022-12-13T10:10:31.622Z,19.31
2022-12-13T10:12:59.482Z,19.30
2022-12-13T10:15:27.232Z,19.31
2022-12-13T10:17:55.989Z,19.31
2022-12-13T10:20:26.076Z,19.29
2022-12-13T10:23:52.546Z,19.25
2022-12-13T10:25:42.151Z,19.24
2022-12-13T10:28:10.105Z,19.24
2022-12-13T10:30:37.955Z,19.22
2022-12-13T10:33:06.190Z,19.24
2022-12-13T10:35:34.703Z,19.24
2022-12-13T10:38:02.752Z,19.23
2022-12-13T10:40:31.921Z,19.24
2022-12-13T10:43:00.773Z,19.26
2022-12-13T10:45:28.853Z,19.28
2022-12-13T10:48:02.214Z,19.24
2022-12-13T10:50:31.749Z,19.26
2022-12-13T10:53:00.172Z,19.27
2022-12-13T10:55:28.682Z,19.24
2022-12-13T10:57:56.467Z,19.24
2022-12-13T11:00:24.318Z,19.26
2022-12-13T11:02:52.189Z,19.25
2022-12-13T11:05:23.278Z,19.21
2022-12-13T11:07:51.549Z,19.21
2022-12-13T11:10:23.742Z,19.22
2022-12-13T11:12:54.939Z,19.22
2022-12-13T11:15:23.124Z,19.22
2022-12-13T11:17:51.175Z,19.23
2022-12-13T11:20:19.132Z,19.24
2022-12-13T11:22:46.990Z,19.25
2022-12-13T11:25:14.799Z,19.25
2022-12-13T11:27:42.628Z,19.25
2022-12-13T11:30:10.585Z,19.23
2022-12-13T11:32:38.337Z,19.24
2022-12-13T11:35:07.859Z,19.24
2022-12-13T11:37:36.248Z,19.22
2022-12-13T11:40:04.023Z,19.22
2022-12-13T11:42:32.029Z,19.20
2022-12-13T11:45:00.075Z,19.21
2022-12-13T11:47:27.814Z,19.22
2022-12-13T11:49:55.656Z,19.23
2022-12-13T11:52:23.439Z,19.23
2022-12-13T11:54:51.322Z,19.22
2022-12-13T11:57:19.126Z,19.22
2022-12-13T11:59:46.897Z,19.21
2022-12-13T12:02:16.835Z,19.25
2022-12-13T12:04:44.884Z,19.24
2022-12-13T12:07:31.919Z,19.21
2022-12-13T12:10:00.606Z,19.20
2022-12-13T12:12:28.532Z,19.21
2022-12-13T12:14:56.329Z,19.24
2022-12-13T12:17:37.835Z,19.20
2022-12-13T12:20:10.170Z,19.19
2022-12-13T12:22:37.947Z,19.15
2022-12-13T12:25:05.660Z,19.19
2022-12-13T12:27:33.426Z,19.16
2022-12-13T12:30:01.153Z,19.14
2022-12-13T12:32:28.937Z,19.16
2022-12-13T12:34:56.768Z,19.13
2022-12-13T12:37:24.531Z,19.11
2022-12-13T12:39:52.326Z,19.12
2022-12-13T12:42:20.152Z,19.14
2022-12-13T12:44:47.931Z,19.13
2022-12-13T12:50:03.477Z,19.11
2022-12-13T12:52:32.399Z,19.09
2022-12-13T12:55:03.655Z,19.09
2022-12-13T12:57:31.412Z,19.06
2022-12-13T13:00:01.711Z,19.06
2022-12-13T13:02:29.852Z,19.07
2022-12-13T13:04:57.682Z,19.06
2022-12-13T13:07:25.406Z,19.05
2022-12-13T13:09:54.905Z,19.03
2022-12-13T13:12:29.934Z,19.04
2022-12-13T13:14:58.383Z,19.06
2022-12-13T13:17:26.078Z,19.06
2022-12-13T13:20:01.437Z,19.06
2022-12-13T13:22:42.787Z,19.02
2022-12-13T13:25:12.292Z,19.00
2022-12-13T13:27:40.012Z,19.01
2022-12-13T13:30:07.796Z,19.00
2022-12-13T13:32:35.590Z,19.00
2022-12-13T13:35:03.368Z,18.97
2022-12-13T13:37:31.092Z,18.96
2022-12-13T13:39:58.863Z,18.96
2022-12-13T13:42:26.588Z,18.97
2022-12-13T13:44:54.323Z,18.96
2022-12-13T13:47:22.287Z,18.95
2022-12-13T13:49:50.063Z,18.93
2022-12-13T13:52:26.065Z,18.95
2022-12-13T13:54:54.302Z,18.94
2022-12-13T13:57:28.892Z,18.95
2022-12-13T14:00:11.257Z,18.96
2022-12-13T14:02:39.044Z,18.96
2022-12-13T14:05:06.854Z,18.95
2022-12-13T14:07:34.784Z,18.98
2022-12-13T14:10:02.628Z,18.99
2022-12-13T14:12:30.406Z,18.98
2022-12-13T14:15:01.346Z,19.00
2022-12-13T14:17:29.590Z,18.99
2022-12-13T14:19:57.425Z,19.00
2022-12-13T14:22:25.237Z,19.00
2022-12-13T14:24:52.953Z,18.96
2022-12-13T14:27:20.789Z,18.96
2022-12-13T14:29:58.582Z,18.96
2022-12-13T14:32:27.537Z,18.97
2022-12-13T14:34:55.435Z,18.99
2022-12-13T14:37:23.245Z,18.98
2022-12-13T14:39:51.186Z,19.00
2022-12-13T14:42:19.773Z,18.97
2022-12-13T14:44:47.495Z,18.93
2022-12-13T14:47:15.321Z,24.79
2022-12-13T14:49:48.968Z,33.51
2022-12-13T14:52:26.706Z,39.24
2022-12-13T14:54:58.125Z,42.33
2022-12-13T14:57:27.051Z,44.02
2022-12-13T14:59:55.275Z,45.13
2022-12-13T15:02:30.844Z,45.91
2022-12-13T15:04:59.490Z,46.45
2022-12-13T15:07:27.530Z,46.82
2022-12-13T15:09:55.239Z,47.16
2022-12-13T15:12:25.122Z,47.33
2022-12-13T15:14:53.641Z,47.53
2022-12-13T15:17:21.497Z,47.72
2022-12-13T15:19:49.323Z,47.69
2022-12-13T15:22:17.230Z,47.63
2022-12-13T15:24:47.052Z,47.34
2022-12-13T15:27:14.765Z,46.99
2022-12-13T15:29:44.822Z,46.47
2022-12-13T15:32:12.607Z,45.36
2022-12-13T15:34:40.424Z,44.12
2022-12-13T15:37:08.180Z,42.72
2022-12-13T15:39:55.671Z,41.23
2022-12-13T15:42:23.449Z,39.84
2022-12-13T15:44:53.730Z,38.61
2022-12-13T15:47:28.513Z,37.42
2022-12-13T15:49:58.816Z,36.13
2022-12-13T15:52:29.519Z,35.07
2022-12-13T15:54:57.430Z,34.06
2022-12-13T15:57:25.131Z,33.20
2022-12-13T15:59:52.983Z,32.37
2022-12-13T16:02:20.828Z,31.67
2022-12-13T16:04:48.587Z,31.02
2022-12-13T16:07:16.285Z,30.50
2022-12-13T16:09:43.989Z,29.90
2022-12-13T16:12:11.705Z,29.36
2022-12-13T16:14:40.957Z,28.91
2022-12-13T16:17:17.574Z,28.54
2022-12-13T16:19:45.500Z,28.42
2022-12-13T16:22:13.249Z,28.12
2022-12-13T16:24:41.016Z,27.76
2022-12-13T16:27:09.126Z,27.78
2022-12-13T16:29:37.022Z,28.03
2022-12-13T16:32:08.021Z,28.30
2022-12-13T16:34:36.744Z,28.53
2022-12-13T16:37:08.828Z,28.70
2022-12-13T16:39:52.260Z,28.85
2022-12-13T16:42:19.968Z,28.93
2022-12-13T16:44:47.678Z,30.38
2022-12-13T16:47:24.786Z,33.44
2022-12-13T16:50:01.649Z,37.42
2022-12-13T16:52:29.448Z,39.90
2022-12-13T16:55:00.587Z,41.20
2022-12-13T16:57:28.339Z,41.76
2022-12-13T16:59:56.132Z,41.69
2022-12-13T17:02:24.001Z,41.07
2022-12-13T17:04:51.954Z,40.11
2022-12-13T17:07:19.742Z,39.12
2022-12-13T17:09:49.607Z,38.04
2022-12-13T17:12:17.771Z,36.97
2022-12-13T17:14:45.639Z,35.94
2022-12-13T17:17:17.563Z,34.86
2022-12-13T17:19:45.903Z,33.89
2022-12-13T17:22:13.700Z,33.03
2022-12-13T17:24:41.458Z,32.22
2022-12-13T17:27:09.666Z,31.43
2022-12-13T17:29:37.408Z,30.70
2022-12-13T17:32:05.183Z,30.02
2022-12-13T17:34:33.113Z,29.39
2022-12-13T17:37:04.369Z,28.78
2022-12-13T17:39:34.803Z,28.18
2022-12-13T17:42:02.601Z,27.97
2022-12-13T17:44:30.413Z,29.70
2022-12-13T17:46:58.327Z,31.88
2022-12-13T17:49:26.109Z,33.16
2022-12-13T17:51:54.228Z,33.36
2022-12-13T17:54:22.721Z,32.92
2022-12-13T17:56:50.625Z,32.20
2022-12-13T17:59:18.481Z,31.42
2022-12-13T18:01:46.268Z,30.55
2022-12-13T18:04:14.051Z,29.74
2022-12-13T18:06:41.815Z,29.02
2022-12-13T18:09:09.652Z,28.38
2022-12-13T18:11:37.739Z,28.10
2022-12-13T18:14:05.472Z,28.11
2022-12-13T18:16:38.829Z,27.80
2022-12-13T18:19:07.247Z,27.35
2022-12-13T18:21:35.414Z,27.95
2022-12-13T18:24:03.272Z,29.82
2022-12-13T18:26:31.088Z,33.54
2022-12-13T18:28:58.895Z,37.40
2022-12-13T18:31:28.047Z,39.91
2022-12-13T18:33:56.023Z,40.89
2022-12-13T18:36:23.756Z,41.17
2022-12-13T18:38:51.664Z,41.64
2022-12-13T18:41:19.511Z,42.13
2022-12-13T18:43:47.608Z,42.13
2022-12-13T18:46:15.589Z,41.49
2022-12-13T18:48:43.544Z,40.56
2022-12-13T18:51:11.530Z,39.60
2022-12-13T18:53:39.392Z,38.56
2022-12-13T18:56:10.427Z,37.37
2022-12-13T18:58:42.208Z,36.31
2022-12-13T19:01:10.512Z,35.26
2022-12-13T19:03:38.332Z,34.37
2022-12-13T19:06:06.081Z,33.46
2022-12-13T19:08:34.103Z,32.67
2022-12-13T19:11:02.131Z,31.89
2022-12-13T19:13:30.080Z,31.14
2022-12-13T19:15:58.235Z,30.44
2022-12-13T19:18:26.152Z,29.79
2022-12-13T19:20:53.931Z,29.19
2022-12-13T19:23:21.748Z,28.56
2022-12-13T19:25:49.588Z,28.05
2022-12-13T19:28:17.725Z,27.54
2022-12-13T19:30:45.518Z,28.39
2022-12-13T19:33:13.447Z,30.30
2022-12-13T19:35:41.457Z,32.12
2022-12-13T19:38:09.617Z,33.63
2022-12-13T19:40:37.569Z,34.82
2022-12-13T19:43:06.342Z,35.75
2022-12-13T19:45:34.127Z,36.27
2022-12-13T19:48:01.965Z,36.05
2022-12-13T19:50:29.945Z,35.46
2022-12-13T19:52:57.774Z,34.82
2022-12-13T19:55:25.546Z,33.92
2022-12-13T19:57:54.044Z,33.08
2022-12-13T20:00:21.871Z,32.28
2022-12-13T20:02:50.562Z,31.56
2022-12-13T20:05:18.484Z,30.91
2022-12-13T20:07:46.301Z,30.21
2022-12-13T20:10:16.362Z,29.61
2022-12-13T20:12:44.145Z,29.14
2022-12-13T20:15:12.048Z,29.25
2022-12-13T20:17:39.927Z,29.02
2022-12-13T20:20:07.748Z,28.64
2022-12-13T20:22:35.596Z,28.18
2022-12-13T20:25:03.405Z,27.77
2022-12-13T20:27:31.266Z,27.34
2022-12-13T20:29:59.225Z,26.94
2022-12-13T20:32:27.172Z,26.62
2022-12-13T20:34:55.281Z,26.32
2022-12-13T20:37:23.139Z,25.98
2022-12-13T20:39:50.976Z,25.69
2022-12-13T20:42:18.783Z,25.42
2022-12-13T20:44:46.875Z,25.18
2022-12-13T20:47:14.731Z,24.91
2022-12-13T20:49:42.779Z,24.68
2022-12-13T20:52:17.004Z,24.42
2022-12-13T20:54:44.809Z,24.20
2022-12-13T20:57:12.677Z,23.96
2022-12-13T20:59:40.493Z,23.77
2022-12-13T21:02:08.477Z,23.59
2022-12-13T21:04:36.384Z,23.41
2022-12-13T21:07:04.246Z,23.21
2022-12-13T21:09:31.961Z,23.06
2022-12-13T21:11:59.781Z,22.95
2022-12-13T21:14:28.489Z,22.84
2022-12-13T21:16:56.315Z,22.71
2022-12-13T21:19:24.218Z,22.62
2022-12-13T21:21:52.009Z,22.50
2022-12-13T21:24:19.876Z,22.41
2022-12-13T21:26:47.670Z,22.30
2022-12-13T21:29:16.346Z,22.21
2022-12-13T21:31:44.358Z,22.13
2022-12-13T21:34:16.807Z,22.07
2022-12-13T21:36:44.628Z,21.98
2022-12-13T21:39:13.944Z,21.94
2022-12-13T21:41:41.892Z,21.88
2022-12-13T21:44:09.768Z,21.77
2022-12-13T21:49:25.382Z,21.63
2022-12-13T21:51:53.154Z,21.60
2022-12-13T21:54:20.946Z,21.54
2022-12-13T21:57:08.619Z,21.49
2022-12-13T21:59:36.412Z,21.39
2022-12-13T22:02:14.518Z,21.34
2022-12-13T22:04:43.584Z,21.26
2022-12-13T22:07:11.493Z,21.21
2022-12-13T22:09:39.275Z,21.16
2022-12-13T22:12:07.188Z,21.10
2022-12-13T22:14:35.076Z,21.07
2022-12-13T22:17:02.925Z,21.02
2022-12-13T22:19:30.843Z,20.96
2022-12-13T22:21:58.639Z,20.94
2022-12-13T22:24:26.742Z,20.91
2022-12-13T22:26:54.518Z,20.85
2022-12-13T22:29:22.313Z,20.83
2022-12-13T22:31:50.200Z,20.76
2022-12-13T22:34:18.131Z,20.74
2022-12-13T22:36:45.963Z,20.70
2022-12-13T22:39:13.723Z,20.67
2022-12-13T22:41:41.536Z,20.65
2022-12-13T22:44:09.348Z,20.61
2022-12-13T22:46:37.317Z,20.57
2022-12-13T22:49:05.206Z,20.53
2022-12-13T22:51:33.014Z,20.46
2022-12-13T22:54:00.792Z,20.39
2022-12-13T22:56:28.625Z,20.31
2022-12-13T22:58:56.488Z,20.27
2022-12-13T23:01:24.428Z,20.25
2022-12-13T23:03:52.202Z,20.21
2022-12-13T23:06:20.128Z,20.16
2022-12-13T23:08:48.062Z,20.13
2022-12-13T23:11:33.615Z,20.10
2022-12-13T23:14:01.374Z,20.08
2022-12-13T23:16:29.251Z,20.09
2022-12-13T23:19:16.922Z,20.06
2022-12-13T23:21:48.527Z,20.05
2022-12-13T23:24:16.615Z,20.04
2022-12-13T23:26:44.607Z,20.03
2022-12-13T23:29:12.429Z,20.01
2022-12-13T23:31:40.463Z,20.02
2022-12-13T23:34:08.273Z,20.01
2022-12-13T23:36:36.012Z,19.99
2022-12-13T23:39:04.147Z,19.97
2022-12-13T23:41:33.971Z,19.95
2022-12-13T23:44:02.003Z,19.92
2022-12-13T23:46:30.106Z,19.91
2022-12-13T23:48:58.042Z,19.88
2022-12-13T23:51:25.846Z,19.87
2022-12-13T23:53:53.630Z,19.87
2022-12-13T23:56:21.407Z,19.85
2022-12-13T23:58:49.264Z,19.83
